Terminal Aerodrome Forecast
Issued by NWS

Home | Current Version | Previous Version | Text Only | Print | Product List | Glossary On
Versions: 1 2 3 4 5 6 7 8 9 10 11 12 13 14 15 16 17 18 19 20 21 22 23 24 25 26 27 28 29
000
FTUS45 KGJT 102336
TAFMTJ
TAF
KMTJ 102336Z 1100/1124 35006KT P6SM VCTS SCT080CB SCT150 BKN200
      TEMPO 1100/1102 VRB20G35KT TS
     FM110200 16007KT P6SM VCSH SCT070 BKN120
     FM110600 15006KT P6SM SCT120 BKN250
     FM111400 VRB03KT P6SM SCT150
     FM111800 35006KT P6SM FEW080 SCT110 SCT200
     FM112100 33008KT P6SM VCTS SCT080CB SCT110 BKN200=

USA.gov is the U.S. government's official web portal to all federal, state and local government web resources and services.